Time;durP1;ratioP1;P1;durP2;ratioP2;P2;SDS_P1;SDS_P2;PMS_P1;PMS_P2;Temp;Humidity;BMP_temperature;BMP_pressure;BME280_temperature;BME280_humidity;BME280_pressure;Samples;Min_cycle;Max_cycle;Signal;HPM_P1;HPM_P2
2022/05/06 00:01:03;;;;;;;13.52;7.82;;;9.70;99.90;;;;;;5035912;28;20507;-73
2022/05/06 00:03:29;;;;;;;11.40;7.00;;;9.50;99.90;;;;;;5052492;28;20409;-74
2022/05/06 00:05:54;;;;;;;12.98;7.75;;;9.50;99.90;;;;;;5052227;28;20056;-74
2022/05/06 00:08:20;;;;;;;13.60;7.65;;;9.50;99.90;;;;;;5050058;28;20029;-73
2022/05/06 00:10:45;;;;;;;10.52;7.20;;;9.50;99.90;;;;;;5068970;28;20079;-73
2022/05/06 00:13:11;;;;;;;12.45;8.02;;;9.50;99.90;;;;;;5035752;28;20041;-74
2022/05/06 00:15:37;;;;;;;13.75;8.63;;;9.50;99.90;;;;;;5035640;28;20041;-74
2022/05/06 00:18:03;;;;;;;15.63;9.38;;;9.40;99.90;;;;;;5051130;28;20037;-74
2022/05/06 00:20:28;;;;;;;14.13;8.60;;;9.40;99.90;;;;;;5052192;28;20040;-74
2022/05/06 00:22:54;;;;;;;15.50;9.30;;;9.40;99.90;;;;;;5033979;28;20045;-74
2022/05/06 00:25:19;;;;;;;13.02;9.15;;;9.50;99.90;;;;;;5050856;28;20039;-74
2022/05/06 00:27:45;;;;;;;14.82;8.93;;;9.50;99.90;;;;;;5052174;28;20128;-74
2022/05/06 00:30:11;;;;;;;12.43;7.55;;;9.50;99.90;;;;;;5035520;28;20044;-74
2022/05/06 00:32:36;;;;;;;7.80;4.22;;;9.40;99.90;;;;;;5051724;28;20049;-74
2022/05/06 00:35:02;;;;;;;8.35;5.05;;;9.40;99.90;;;;;;5034416;28;20591;-74
2022/05/06 00:37:28;;;;;;;9.70;5.22;;;9.30;99.90;;;;;;5052052;28;20412;-74
2022/05/06 00:39:53;;;;;;;10.13;5.85;;;9.20;99.90;;;;;;5051929;28;20040;-74
2022/05/06 00:42:19;;;;;;;9.57;5.43;;;9.30;99.90;;;;;;5050943;28;20564;-74
2022/05/06 00:44:45;;;;;;;8.73;4.90;;;9.20;99.90;;;;;;5050862;28;20110;-74
2022/05/06 00:47:11;;;;;;;9.25;4.95;;;9.20;99.90;;;;;;5068527;28;20409;-74
2022/05/06 00:49:37;;;;;;;9.45;4.38;;;9.20;99.90;;;;;;5049076;28;20432;-74
2022/05/06 00:52:04;;;;;;;6.97;4.20;;;9.30;99.90;;;;;;5051870;28;20552;-74
2022/05/06 00:54:37;;;;;;;7.97;4.32;;;9.20;99.90;;;;;;5049937;28;20045;-74
2022/05/06 00:57:03;;;;;;;7.55;4.13;;;9.30;99.90;;;;;;5051793;28;20037;-74
2022/05/06 00:59:29;;;;;;;4.15;2.05;;;9.30;99.90;;;;;;5035225;28;20044;-74
2022/05/06 01:01:57;;;;;;;5.38;2.80;;;9.20;99.90;;;;;;5049756;28;20068;-74
2022/05/06 01:04:23;;;;;;;5.75;3.20;;;9.20;99.90;;;;;;5034565;28;20040;-74
2022/05/06 01:06:49;;;;;;;4.72;2.80;;;9.20;99.90;;;;;;5035057;28;20043;-74
2022/05/06 01:09:16;;;;;;;5.28;2.80;;;9.20;99.90;;;;;;5035023;28;20044;-74
2022/05/06 01:11:43;;;;;;;3.65;2.42;;;9.20;99.90;;;;;;5035336;28;20045;-74
2022/05/06 01:14:09;;;;;;;5.90;3.38;;;9.10;99.90;;;;;;5034250;28;20118;-74
2022/05/06 01:16:36;;;;;;;9.82;5.45;;;9.00;99.90;;;;;;5051577;28;20040;-74
2022/05/06 01:19:03;;;;;;;7.97;4.10;;;8.80;99.90;;;;;;5051668;28;20068;-74
2022/05/06 01:21:36;;;;;;;6.97;3.60;;;8.80;99.90;;;;;;5053910;28;20041;-74
2022/05/06 01:24:02;;;;;;;9.07;5.07;;;8.80;99.90;;;;;;5055563;28;20033;-74
2022/05/06 01:26:59;;;;;;;10.18;5.68;;;8.90;99.90;;;;;;5038792;28;20045;-74
2022/05/06 01:29:26;;;;;;;10.73;6.95;;;8.70;99.90;;;;;;5054555;28;20033;-74
2022/05/06 01:31:53;;;;;;;11.90;7.20;;;8.80;99.90;;;;;;5054581;28;20468;-74
2022/05/06 01:34:22;;;;;;;14.20;7.47;;;8.80;99.90;;;;;;5055150;28;20057;-74
2022/05/06 01:36:51;;;;;;;10.35;5.80;;;8.80;99.90;;;;;;5055261;28;20123;-74
2022/05/06 01:39:22;;;;;;;9.68;6.30;;;8.80;99.90;;;;;;5051888;28;20045;-74
2022/05/06 01:41:53;;;;;;;10.05;6.00;;;8.80;99.90;;;;;;5070761;28;20052;-74
2022/05/06 01:44:21;;;;;;;9.15;5.20;;;8.80;99.90;;;;;;5052715;28;20110;-74
2022/05/06 01:46:47;;;;;;;9.82;5.63;;;8.80;99.90;;;;;;5055018;28;20045;-74
2022/05/06 01:49:14;;;;;;;10.48;5.68;;;8.80;99.90;;;;;;5054017;28;20039;-74
2022/05/06 01:51:42;;;;;;;10.90;5.78;;;8.80;99.90;;;;;;5053476;28;20037;-74
2022/05/06 01:54:08;;;;;;;10.25;5.35;;;8.70;99.90;;;;;;5038623;28;20135;-74
2022/05/06 01:56:33;;;;;;;10.30;6.20;;;8.60;99.90;;;;;;5055031;28;20033;-74
2022/05/06 01:58:59;;;;;;;10.65;6.65;;;8.50;99.90;;;;;;5054176;28;20132;-74
2022/05/06 02:01:24;;;;;;;12.02;6.10;;;8.50;99.90;;;;;;5037300;28;20029;-74
2022/05/06 02:06:34;;;;;;;11.35;7.00;;;8.60;99.90;;;;;;5054694;28;20477;-73
2022/05/06 02:09:00;;;;;;;9.60;5.78;;;8.50;99.90;;;;;;5037617;28;20119;-73
2022/05/06 02:11:26;;;;;;;9.18;5.30;;;8.50;99.90;;;;;;5037189;28;20489;-73
2022/05/06 02:13:51;;;;;;;9.18;5.72;;;8.40;99.90;;;;;;5054939;28;20037;-74
2022/05/06 02:16:17;;;;;;;8.80;5.35;;;8.50;99.90;;;;;;5071146;28;20131;-74
2022/05/06 02:18:42;;;;;;;7.65;4.30;;;8.50;99.90;;;;;;5053875;28;20041;-74
2022/05/06 02:21:08;;;;;;;7.00;3.80;;;8.50;99.90;;;;;;5037180;28;20083;-74
2022/05/06 02:23:34;;;;;;;7.18;4.10;;;8.40;99.90;;;;;;5054719;28;20408;-74
2022/05/06 02:26:00;;;;;;;7.90;4.05;;;8.40;99.90;;;;;;5054241;28;20485;-74
2022/05/06 02:28:26;;;;;;;8.75;4.65;;;8.40;99.90;;;;;;5037057;28;20040;-74
2022/05/06 02:33:36;;;;;;;10.23;6.57;;;8.40;99.90;;;;;;5053961;28;20044;-74
2022/05/06 02:36:02;;;;;;;9.75;5.85;;;8.30;99.90;;;;;;5054015;28;20515;-74
2022/05/06 02:38:28;;;;;;;9.18;5.40;;;8.30;99.90;;;;;;5053382;28;20037;-74
2022/05/06 02:40:55;;;;;;;8.75;5.10;;;8.30;99.90;;;;;;5035624;28;20048;-74
2022/05/06 02:43:20;;;;;;;11.30;6.47;;;8.20;99.90;;;;;;5034196;28;20041;-74
2022/05/06 02:45:46;;;;;;;11.25;6.22;;;8.20;99.90;;;;;;5046064;28;20088;-74
2022/05/06 02:48:12;;;;;;;10.40;6.15;;;8.20;99.90;;;;;;5051463;28;20036;-74
2022/05/06 02:50:38;;;;;;;9.85;6.68;;;8.20;99.90;;;;;;5052413;28;20051;-74
2022/05/06 02:53:04;;;;;;;9.40;5.80;;;8.20;99.90;;;;;;5037395;28;20036;-74
2022/05/06 02:55:31;;;;;;;10.63;5.40;;;8.10;99.90;;;;;;5037145;28;20543;-74
2022/05/06 02:57:56;;;;;;;8.60;5.47;;;8.20;99.90;;;;;;5036316;28;20080;-74
2022/05/06 03:00:22;;;;;;;9.35;5.03;;;8.20;99.90;;;;;;5053850;28;20481;-74
2022/05/06 03:02:48;;;;;;;8.82;5.03;;;8.00;99.90;;;;;;5051783;28;20090;-74
2022/05/06 03:05:13;;;;;;;8.82;4.60;;;8.00;99.90;;;;;;5037341;28;20118;-74
2022/05/06 03:07:40;;;;;;;8.73;5.03;;;7.90;99.90;;;;;;5051949;28;20123;-74
2022/05/06 03:10:06;;;;;;;9.63;5.72;;;7.80;99.90;;;;;;5069146;28;20087;-74
2022/05/06 03:12:33;;;;;;;8.45;5.07;;;7.70;99.90;;;;;;5052738;28;20405;-73
2022/05/06 03:15:03;;;;;;;9.00;5.80;;;7.70;99.90;;;;;;5053451;28;20044;-74
2022/05/06 03:17:28;;;;;;;8.50;4.78;;;7.70;99.90;;;;;;5052566;28;20060;-73
2022/05/06 03:19:54;;;;;;;7.13;4.43;;;7.50;99.90;;;;;;5070029;28;20037;-74
2022/05/06 03:22:19;;;;;;;7.50;4.28;;;7.50;99.90;;;;;;5034803;28;20037;-73
2022/05/06 03:24:45;;;;;;;8.65;5.03;;;7.40;99.90;;;;;;5036628;28;20079;-73
2022/05/06 03:29:55;;;;;;;8.10;4.25;;;7.60;99.90;;;;;;5045654;28;20040;-74
2022/05/06 03:32:22;;;;;;;8.13;4.80;;;7.70;99.90;;;;;;5050575;28;20059;-73
2022/05/06 03:34:48;;;;;;;9.57;5.30;;;7.60;99.90;;;;;;5036226;28;20138;-73
2022/05/06 03:37:14;;;;;;;9.95;5.45;;;7.70;99.90;;;;;;5053023;28;20043;-73
2022/05/06 03:39:39;;;;;;;10.50;6.30;;;7.60;99.90;;;;;;5035800;28;20040;-73
2022/05/06 03:42:05;;;;;;;10.18;6.28;;;7.60;99.90;;;;;;5051918;28;20147;-74
2022/05/06 03:44:31;;;;;;;8.95;5.32;;;7.60;99.90;;;;;;5068632;28;20041;-73
2022/05/06 03:46:56;;;;;;;9.55;5.90;;;7.60;99.90;;;;;;5036188;28;20044;-73
2022/05/06 03:49:22;;;;;;;8.80;5.75;;;7.60;99.90;;;;;;5035470;28;20048;-73
2022/05/06 03:51:47;;;;;;;10.30;6.18;;;7.60;99.90;;;;;;5035088;28;20079;-73
2022/05/06 03:54:13;;;;;;;8.63;5.43;;;7.60;99.90;;;;;;5052774;28;20037;-73
2022/05/06 03:56:39;;;;;;;8.95;5.18;;;7.50;99.90;;;;;;5036215;28;20051;-74
2022/05/06 03:59:05;;;;;;;10.27;5.30;;;7.50;99.90;;;;;;5035278;28;20064;-73
2022/05/06 04:01:30;;;;;;;9.70;6.07;;;7.40;99.90;;;;;;5035470;28;20485;-74
2022/05/06 04:03:56;;;;;;;9.48;5.22;;;7.40;99.90;;;;;;5052856;28;20140;-74
2022/05/06 04:06:21;;;;;;;9.75;5.35;;;7.40;99.90;;;;;;5051774;28;20481;-73
2022/05/06 04:08:47;;;;;;;9.77;5.60;;;7.30;99.90;;;;;;5035091;28;20090;-73
2022/05/06 04:11:13;;;;;;;10.70;6.82;;;7.30;99.90;;;;;;5051653;28;20072;-73
2022/05/06 04:13:39;;;;;;;15.07;8.50;;;7.40;99.90;;;;;;5052340;28;20037;-73
2022/05/06 04:16:07;;;;;;;12.95;7.35;;;7.30;99.90;;;;;;5046242;28;20552;-74
2022/05/06 04:18:33;;;;;;;11.57;7.00;;;7.30;99.90;;;;;;5046008;28;20123;-74
2022/05/06 04:23:43;;;;;;;17.13;9.20;;;7.30;99.90;;;;;;5052558;28;20088;-73
2022/05/06 04:26:12;;;;;;;23.13;11.32;;;7.30;99.90;;;;;;5055550;28;20032;-73
2022/05/06 04:28:39;;;;;;;19.15;9.40;;;7.40;99.90;;;;;;5046564;28;20108;-73
2022/05/06 04:31:05;;;;;;;24.15;11.63;;;7.40;99.90;;;;;;5050538;28;20182;-73
2022/05/06 04:33:32;;;;;;;26.08;10.90;;;7.50;99.90;;;;;;5052100;28;20041;-73
2022/05/06 04:35:59;;;;;;;23.13;10.82;;;7.50;99.90;;;;;;5033193;28;20053;-73
2022/05/06 04:38:26;;;;;;;27.63;12.75;;;7.50;99.90;;;;;;5051042;28;20412;-73
2022/05/06 04:40:54;;;;;;;29.38;13.70;;;7.60;99.90;;;;;;5060475;28;20033;-73
2022/05/06 04:43:20;;;;;;;22.10;11.35;;;7.60;99.90;;;;;;5034688;28;20127;-73
2022/05/06 04:45:47;;;;;;;23.15;12.35;;;7.60;99.90;;;;;;5050834;28;20033;-73
2022/05/06 04:48:13;;;;;;;21.42;12.90;;;7.70;99.90;;;;;;5049207;28;20037;-73
2022/05/06 04:50:40;;;;;;;22.77;12.25;;;7.70;99.90;;;;;;5051237;28;20375;-74
2022/05/06 04:53:07;;;;;;;20.75;11.82;;;7.70;99.90;;;;;;5050183;28;20108;-73
2022/05/06 04:55:39;;;;;;;17.85;10.80;;;7.70;99.90;;;;;;5033395;28;20396;-73
2022/05/06 04:58:06;;;;;;;19.77;11.40;;;7.70;99.90;;;;;;5050540;28;20068;-73
2022/05/06 05:00:32;;;;;;;18.85;11.48;;;7.70;99.90;;;;;;5051217;28;20041;-73
2022/05/06 05:02:58;;;;;;;19.35;11.52;;;7.60;99.90;;;;;;5050869;28;20080;-73
2022/05/06 05:05:24;;;;;;;17.38;10.95;;;7.70;99.90;;;;;;5050900;28;20386;-73
2022/05/06 05:07:51;;;;;;;18.83;11.55;;;7.70;99.90;;;;;;5033412;28;20048;-73
2022/05/06 05:10:17;;;;;;;17.15;10.65;;;7.70;99.90;;;;;;5032533;28;20046;-73
2022/05/06 05:12:42;;;;;;;16.65;10.88;;;7.70;99.90;;;;;;5050447;28;20037;-73
2022/05/06 05:15:08;;;;;;;17.38;12.13;;;7.70;99.90;;;;;;5064677;28;20049;-73
2022/05/06 05:17:34;;;;;;;18.88;12.23;;;7.80;99.90;;;;;;5033844;28;20131;-73
2022/05/06 05:20:00;;;;;;;18.05;11.95;;;7.80;99.90;;;;;;5071595;28;20127;-73
2022/05/06 05:22:26;;;;;;;17.08;12.10;;;7.90;99.90;;;;;;5048035;28;20481;-73
2022/05/06 05:24:51;;;;;;;20.20;14.15;;;7.80;99.90;;;;;;5050231;28;20044;-73
2022/05/06 05:27:17;;;;;;;19.70;13.82;;;7.90;99.90;;;;;;5034253;28;20535;-73
2022/05/06 05:29:43;;;;;;;20.60;14.10;;;7.90;99.90;;;;;;5034317;28;20508;-73
2022/05/06 05:32:10;;;;;;;24.13;16.13;;;7.80;99.90;;;;;;5049024;28;20056;-73
2022/05/06 05:34:36;;;;;;;23.23;15.48;;;7.90;99.90;;;;;;5050418;28;20053;-73
2022/05/06 05:37:02;;;;;;;22.13;15.45;;;8.00;99.90;;;;;;5049956;28;20489;-73
2022/05/06 05:39:27;;;;;;;20.38;14.23;;;8.00;99.90;;;;;;5049214;28;20064;-73
2022/05/06 05:41:53;;;;;;;20.65;15.05;;;8.00;99.90;;;;;;5032739;28;20134;-73
2022/05/06 05:49:48;;;;;;;21.63;14.85;;;8.10;99.90;;;;;;5054240;28;20489;-73
2022/05/06 05:52:14;;;;;;;22.13;15.88;;;8.00;99.90;;;;;;5054685;28;20175;-73
2022/05/06 05:54:39;;;;;;;22.10;15.82;;;8.10;99.90;;;;;;5051485;28;20076;-73
2022/05/06 05:57:05;;;;;;;22.60;15.02;;;8.20;99.90;;;;;;5051274;28;20397;-73
2022/05/06 05:59:31;;;;;;;22.48;15.50;;;8.30;99.90;;;;;;5050354;28;20033;-73
2022/05/06 06:01:57;;;;;;;22.25;15.10;;;8.40;99.90;;;;;;5045801;28;20409;-73
2022/05/06 06:04:22;;;;;;;23.58;14.77;;;8.50;99.90;;;;;;5033127;28;20481;-73
2022/05/06 06:06:48;;;;;;;22.25;15.02;;;8.60;99.90;;;;;;5033558;28;20393;-73
2022/05/06 06:09:14;;;;;;;29.75;16.15;;;8.70;99.90;;;;;;5057035;28;20491;-73
2022/05/06 06:11:40;;;;;;;25.90;16.85;;;8.70;99.90;;;;;;5054361;28;20389;-73
2022/05/06 06:14:06;;;;;;;30.05;18.13;;;8.70;99.90;;;;;;5036942;28;20071;-73
2022/05/06 06:16:31;;;;;;;35.45;19.42;;;8.70;99.90;;;;;;5053821;28;20047;-73
2022/05/06 06:18:58;;;;;;;32.75;19.58;;;8.70;99.90;;;;;;5054825;28;20461;-73
2022/05/06 06:21:27;;;;;;;31.58;19.70;;;8.80;99.90;;;;;;5044677;28;20041;-73
2022/05/06 06:23:53;;;;;;;31.90;19.73;;;8.90;99.90;;;;;;5040518;28;20029;-73
2022/05/06 06:26:19;;;;;;;32.55;20.27;;;9.00;99.90;;;;;;5054134;28;20033;-73
2022/05/06 06:28:44;;;;;;;30.98;19.77;;;9.00;99.90;;;;;;5055100;28;20052;-73
2022/05/06 06:31:10;;;;;;;32.70;20.23;;;9.20;99.90;;;;;;5054128;28;20490;-73
2022/05/06 06:33:38;;;;;;;29.13;17.10;;;9.30;99.90;;;;;;5053543;28;20039;-74
2022/05/06 06:36:07;;;;;;;31.25;20.08;;;9.50;99.90;;;;;;5034199;28;20054;-74
2022/05/06 06:38:33;;;;;;;27.73;18.70;;;9.60;99.90;;;;;;5052411;28;20045;-74
2022/05/06 06:40:59;;;;;;;29.08;18.90;;;9.60;99.90;;;;;;5053093;28;20052;-73
2022/05/06 06:43:25;;;;;;;28.50;18.85;;;9.60;99.90;;;;;;5056019;28;20115;-74
2022/05/06 06:45:51;;;;;;;28.10;17.17;;;9.60;99.90;;;;;;5051856;28;20546;-74
2022/05/06 06:48:17;;;;;;;30.33;18.67;;;9.70;99.90;;;;;;5055199;28;20033;-74
2022/05/06 06:50:43;;;;;;;31.63;20.33;;;9.80;99.90;;;;;;5056158;28;20040;-74
2022/05/06 06:53:08;;;;;;;26.35;17.55;;;9.80;99.90;;;;;;5049366;28;20045;-74
2022/05/06 06:55:34;;;;;;;32.00;18.48;;;9.80;99.90;;;;;;5024562;28;20471;-74
2022/05/06 06:58:00;;;;;;;28.52;17.98;;;9.80;99.90;;;;;;5037719;28;20041;-74
2022/05/06 07:00:26;;;;;;;36.58;18.88;;;9.90;99.90;;;;;;5052672;28;20037;-73
2022/05/06 07:02:53;;;;;;;29.30;18.25;;;9.90;99.90;;;;;;5034549;28;20060;-74
2022/05/06 07:05:18;;;;;;;31.90;19.75;;;10.00;99.90;;;;;;5036409;28;20047;-74
2022/05/06 07:13:12;;;;;;;37.05;23.88;;;10.40;99.90;;;;;;5041497;28;20049;-74
2022/05/06 07:15:37;;;;;;;34.70;21.50;;;10.40;99.90;;;;;;5054681;28;20036;-73
2022/05/06 07:18:03;;;;;;;36.85;23.60;;;10.50;99.90;;;;;;5054228;28;20043;-74
2022/05/06 07:20:29;;;;;;;37.28;24.10;;;10.50;99.90;;;;;;5034993;28;20045;-74
2022/05/06 07:22:54;;;;;;;40.35;24.13;;;10.50;99.90;;;;;;5052100;28;20095;-74
2022/05/06 07:25:20;;;;;;;39.05;25.02;;;10.60;99.90;;;;;;5054443;28;20044;-74
2022/05/06 07:27:46;;;;;;;38.63;24.08;;;10.80;99.90;;;;;;5049283;28;20040;-74
2022/05/06 07:30:11;;;;;;;42.90;25.58;;;10.90;99.90;;;;;;5069168;28;20104;-74
2022/05/06 07:32:37;;;;;;;41.50;26.42;;;10.90;99.90;;;;;;5035354;28;20125;-74
2022/05/06 07:35:04;;;;;;;40.10;24.40;;;11.00;99.90;;;;;;5035490;28;20171;-73
2022/05/06 07:37:33;;;;;;;38.13;23.90;;;11.10;99.90;;;;;;5050702;28;20037;-74
2022/05/06 07:40:04;;;;;;;37.03;23.25;;;11.20;99.90;;;;;;5051688;28;20041;-74
2022/05/06 07:42:30;;;;;;;34.55;21.08;;;11.30;99.90;;;;;;5053757;28;20409;-74
2022/05/06 07:45:00;;;;;;;34.20;20.15;;;11.30;99.90;;;;;;5029601;28;20037;-74
2022/05/06 07:47:25;;;;;;;33.88;20.63;;;11.40;99.90;;;;;;5051391;28;20084;-74
2022/05/06 07:49:51;;;;;;;36.78;20.55;;;11.50;99.90;;;;;;5036859;28;20412;-74
2022/05/06 07:52:17;;;;;;;35.95;22.48;;;11.60;99.90;;;;;;5051556;28;20051;-74
2022/05/06 07:54:43;;;;;;;36.22;21.85;;;11.70;99.90;;;;;;5051401;28;20044;-74
2022/05/06 07:57:08;;;;;;;41.20;22.77;;;11.70;99.90;;;;;;5051567;28;20037;-74
2022/05/06 07:59:34;;;;;;;37.15;20.35;;;11.80;99.90;;;;;;5050923;28;20037;-74
2022/05/06 08:04:48;;;;;;;32.75;19.15;;;11.90;99.90;;;;;;5051645;28;20033;-74
2022/05/06 08:07:15;;;;;;;30.17;18.33;;;12.20;99.90;;;;;;5034838;28;20090;-74
2022/05/06 08:09:40;;;;;;;32.28;18.65;;;12.20;99.90;;;;;;5036438;28;20066;-74
2022/05/06 08:12:07;;;;;;;32.50;18.98;;;12.30;99.90;;;;;;5051572;28;20071;-74
2022/05/06 08:14:32;;;;;;;30.60;19.35;;;12.40;99.90;;;;;;5032833;28;20045;-74
2022/05/06 08:17:01;;;;;;;31.05;18.27;;;12.50;99.90;;;;;;5032281;28;20048;-74
2022/05/06 08:19:27;;;;;;;27.98;16.80;;;12.60;99.90;;;;;;5021679;28;20048;-74
2022/05/06 08:21:53;;;;;;;28.20;16.90;;;12.70;99.90;;;;;;5051269;28;20037;-74
2022/05/06 08:24:19;;;;;;;28.73;16.35;;;12.90;99.90;;;;;;5051127;28;20051;-74
2022/05/06 08:26:46;;;;;;;27.92;16.80;;;12.90;99.90;;;;;;5053533;28;20037;-74
2022/05/06 08:29:12;;;;;;;27.42;16.80;;;13.20;99.90;;;;;;5048230;28;20037;-74
2022/05/06 08:31:38;;;;;;;27.10;16.65;;;13.20;99.90;;;;;;5050589;28;20119;-74
2022/05/06 08:34:11;;;;;;;26.67;16.83;;;13.40;99.90;;;;;;5034615;28;20135;-74
2022/05/06 08:36:39;;;;;;;24.42;15.00;;;13.50;99.90;;;;;;5050771;28;20081;-74
2022/05/06 08:39:05;;;;;;;22.50;13.45;;;13.80;99.90;;;;;;5049738;28;20090;-74
2022/05/06 08:41:31;;;;;;;21.05;13.35;;;13.90;99.90;;;;;;5050885;28;20477;-74
2022/05/06 08:43:58;;;;;;;22.17;13.90;;;13.90;99.90;;;;;;5036495;28;20037;-74
2022/05/06 08:51:56;;;;;;;20.17;12.05;;;14.20;99.90;;;;;;5049528;28;20045;-74
2022/05/06 08:54:22;;;;;;;17.73;11.90;;;14.40;99.90;;;;;;5044611;28;20041;-75
2022/05/06 08:56:48;;;;;;;18.55;11.05;;;14.40;99.90;;;;;;5042758;28;20124;-74
2022/05/06 08:59:13;;;;;;;20.80;10.75;;;14.40;99.90;;;;;;5046409;28;20128;-74
2022/05/06 09:01:39;;;;;;;19.23;11.50;;;14.50;99.90;;;;;;5034066;28;20037;-74
2022/05/06 09:04:05;;;;;;;16.70;11.05;;;14.60;99.90;;;;;;5052179;28;20049;-73
2022/05/06 09:06:32;;;;;;;15.88;10.45;;;14.60;99.90;;;;;;5050852;28;20120;-74
2022/05/06 09:08:59;;;;;;;15.75;10.80;;;14.60;99.90;;;;;;5031415;28;20037;-74
2022/05/06 09:16:39;;;;;;;16.02;10.05;;;14.70;99.90;;;;;;5049644;28;20041;-73
2022/05/06 09:17:20;;;;;;;13.98;9.50;;;14.90;99.90;;;;;;5048404;28;20128;-72
2022/05/06 09:19:45;;;;;;;14.27;8.73;;;14.90;99.90;;;;;;5050327;28;20037;-73
2022/05/06 09:22:13;;;;;;;12.25;9.05;;;14.80;99.90;;;;;;5033073;28;20422;-73
2022/05/06 09:24:40;;;;;;;11.40;7.53;;;15.00;99.90;;;;;;5051324;28;20485;-73
2022/05/06 09:27:09;;;;;;;11.65;7.40;;;15.10;99.90;;;;;;5050783;28;20400;-73
2022/05/06 09:29:49;;;;;;;11.40;7.80;;;15.30;99.90;;;;;;5067104;28;20037;-73
2022/05/06 09:32:30;;;;;;;8.60;6.38;;;15.40;99.90;;;;;;5052559;28;20492;-73
2022/05/06 09:34:56;;;;;;;9.45;5.88;;;15.50;99.90;;;;;;5071347;28;20110;-73
2022/05/06 09:37:31;;;;;;;8.60;6.30;;;15.50;99.90;;;;;;5043534;28;20049;-73
2022/05/06 09:40:02;;;;;;;9.15;6.07;;;15.50;99.90;;;;;;5051418;28;20037;-73
2022/05/06 09:42:28;;;;;;;10.05;6.93;;;15.60;99.90;;;;;;5052708;28;20037;-73
2022/05/06 09:44:53;;;;;;;9.32;6.45;;;15.70;99.90;;;;;;5054445;28;20124;-73
2022/05/06 09:47:20;;;;;;;9.02;5.72;;;15.80;99.90;;;;;;5038882;28;20040;-73
2022/05/06 09:49:45;;;;;;;9.55;5.43;;;15.70;99.90;;;;;;5052502;28;20048;-73
2022/05/06 09:52:13;;;;;;;9.60;5.63;;;15.60;99.90;;;;;;5071770;28;20045;-73
2022/05/06 09:54:43;;;;;;;8.50;5.68;;;15.60;99.90;;;;;;5054909;28;20079;-73
2022/05/06 09:57:18;;;;;;;7.72;5.25;;;15.60;99.90;;;;;;5069899;28;20091;-73
2022/05/06 09:59:44;;;;;;;8.52;5.88;;;15.70;99.90;;;;;;5052270;28;20524;-73
2022/05/06 10:02:10;;;;;;;8.57;5.53;;;15.90;99.90;;;;;;5065808;28;20383;-73
2022/05/06 10:04:37;;;;;;;8.45;6.18;;;16.20;99.90;;;;;;5052798;28;20103;-73
2022/05/06 10:07:13;;;;;;;8.63;5.15;;;16.20;99.90;;;;;;5052517;28;20060;-73
2022/05/06 10:10:05;;;;;;;7.63;5.32;;;16.40;99.90;;;;;;5051821;28;20033;-73
2022/05/06 10:12:37;;;;;;;8.13;5.57;;;16.50;99.90;;;;;;5051580;28;20139;-73
2022/05/06 10:15:08;;;;;;;9.63;5.88;;;16.70;99.90;;;;;;5053418;28;20092;-73
2022/05/06 10:17:54;;;;;;;9.25;5.78;;;16.80;99.90;;;;;;5055950;28;20516;-73
2022/05/06 10:20:44;;;;;;;8.77;5.97;;;17.10;99.90;;;;;;5035846;28;20037;-73
2022/05/06 10:23:15;;;;;;;9.32;5.20;;;17.10;99.90;;;;;;5052171;28;20466;-73
2022/05/06 10:25:44;;;;;;;7.15;3.90;;;17.10;99.90;;;;;;5054483;28;20044;-72
2022/05/06 10:34:13;;;;;;;8.38;5.50;;;17.20;99.90;;;;;;5052655;28;20057;-73
2022/05/06 10:36:46;;;;;;;8.15;5.30;;;17.30;99.90;;;;;;5053400;28;20370;-73
2022/05/06 10:39:23;;;;;;;8.50;5.13;;;17.50;99.90;;;;;;5053171;28;20040;-73
2022/05/06 10:42:09;;;;;;;7.18;4.57;;;17.70;99.90;;;;;;5036463;28;20080;-73
2022/05/06 10:44:37;;;;;;;7.15;4.60;;;17.60;99.90;;;;;;5054094;28;20068;-73
2022/05/06 10:47:23;;;;;;;9.02;5.00;;;17.70;99.90;;;;;;5053949;28;20037;-73
2022/05/06 10:49:50;;;;;;;8.40;5.50;;;17.70;99.90;;;;;;5053774;28;20478;-73
2022/05/06 10:52:15;;;;;;;8.40;5.50;;;17.80;99.90;;;;;;5053411;28;20124;-73
2022/05/06 10:54:41;;;;;;;8.45;5.00;;;17.70;99.90;;;;;;5053763;28;20480;-73
2022/05/06 10:57:08;;;;;;;5.72;3.70;;;17.80;99.90;;;;;;5053913;28;20041;-73
2022/05/06 10:59:49;;;;;;;7.03;4.47;;;18.00;99.90;;;;;;5053970;28;20044;-73
2022/05/06 11:02:16;;;;;;;6.37;4.30;;;18.00;99.90;;;;;;5053778;28;20047;-73
2022/05/06 11:04:51;;;;;;;7.72;4.43;;;17.90;99.90;;;;;;5053806;28;20033;-73
2022/05/06 11:07:17;;;;;;;7.28;4.50;;;18.00;99.90;;;;;;5053972;28;20098;-73
2022/05/06 11:09:43;;;;;;;7.80;4.63;;;18.20;99.90;;;;;;5053653;28;20126;-73
2022/05/06 11:12:09;;;;;;;6.05;3.42;;;18.30;99.90;;;;;;5053517;28;20048;-73
2022/05/06 11:14:35;;;;;;;6.40;3.13;;;18.30;99.90;;;;;;5053595;28;20041;-73
2022/05/06 11:17:33;;;;;;;5.78;3.28;;;18.40;99.10;;;;;;5053790;28;20047;-73
2022/05/06 11:20:04;;;;;;;5.60;3.33;;;18.40;99.90;;;;;;5049597;28;20059;-73
2022/05/06 11:22:33;;;;;;;4.83;2.53;;;18.50;99.90;;;;;;5053470;28;20037;-73
2022/05/06 11:25:00;;;;;;;6.60;3.40;;;18.60;96.50;;;;;;5053302;28;20120;-73
2022/05/06 11:27:26;;;;;;;7.38;3.15;;;18.60;98.10;;;;;;5053259;28;20037;-73
2022/05/06 11:29:57;;;;;;;5.15;2.95;;;18.70;96.10;;;;;;5053520;28;20413;-73
2022/05/06 11:32:31;;;;;;;5.70;3.28;;;18.60;98.60;;;;;;5053228;28;20037;-73
2022/05/06 11:35:11;;;;;;;5.75;2.97;;;18.60;96.00;;;;;;5053167;28;20448;-73
2022/05/06 11:37:40;;;;;;;5.43;2.83;;;18.70;96.30;;;;;;5053217;28;20045;-73
2022/05/06 11:40:32;;;;;;;4.10;2.50;;;18.70;97.60;;;;;;5053079;28;20087;-73
2022/05/06 11:43:16;;;;;;;5.63;3.20;;;18.70;99.10;;;;;;5052993;28;20388;-73
2022/05/06 11:48:29;;;;;;;5.47;2.38;;;18.90;97.00;;;;;;5052903;28;20493;-73
2022/05/06 11:51:02;;;;;;;5.72;2.50;;;18.80;94.90;;;;;;5052754;28;20037;-74
2022/05/06 11:53:29;;;;;;;5.85;2.63;;;18.90;96.70;;;;;;5052779;28;20037;-73
2022/05/06 11:55:55;;;;;;;5.50;3.08;;;19.00;98.60;;;;;;5052816;28;20036;-74
2022/05/06 11:58:23;;;;;;;4.55;2.65;;;19.10;95.80;;;;;;5052975;28;20358;-74
2022/05/06 12:00:50;;;;;;;5.57;2.70;;;19.00;98.00;;;;;;5052678;28;20520;-73
2022/05/06 12:03:16;;;;;;;5.18;2.60;;;19.00;98.20;;;;;;5052503;28;20037;-74
2022/05/06 12:05:42;;;;;;;6.60;2.40;;;18.90;97.50;;;;;;5051929;28;20566;-74
2022/05/06 12:08:08;;;;;;;4.85;2.33;;;19.10;97.20;;;;;;5052539;28;20044;-74
2022/05/06 12:10:36;;;;;;;4.82;2.15;;;19.10;99.00;;;;;;5052382;28;20064;-74
2022/05/06 12:13:06;;;;;;;4.63;2.17;;;19.30;96.00;;;;;;5052406;28;20044;-74
2022/05/06 12:15:40;;;;;;;4.43;2.25;;;19.20;97.20;;;;;;5052737;28;20374;-74
2022/05/06 12:18:11;;;;;;;4.97;2.30;;;19.00;99.30;;;;;;5052350;28;20045;-74
2022/05/06 12:20:41;;;;;;;4.60;2.30;;;19.00;98.70;;;;;;5052258;28;20040;-74
2022/05/06 12:23:08;;;;;;;6.68;2.65;;;19.10;99.90;;;;;;5052160;28;20144;-74
2022/05/06 12:25:35;;;;;;;5.55;2.50;;;19.20;99.90;;;;;;5052350;28;20037;-74
2022/05/06 12:28:13;;;;;;;5.30;2.33;;;19.40;99.90;;;;;;5052195;28;20159;-74
2022/05/06 12:30:39;;;;;;;4.38;1.98;;;19.30;99.90;;;;;;5068805;28;20041;-74
2022/05/06 12:33:11;;;;;;;4.85;2.40;;;19.40;97.20;;;;;;5052069;28;20041;-74
2022/05/06 12:35:57;;;;;;;5.00;2.90;;;19.30;99.50;;;;;;5052015;28;20061;-74
2022/05/06 12:38:24;;;;;;;5.68;2.67;;;19.40;99.90;;;;;;5052068;28;20076;-74
2022/05/06 12:40:50;;;;;;;6.05;2.80;;;19.40;99.10;;;;;;5051973;28;20074;-74
2022/05/06 12:43:23;;;;;;;5.80;2.30;;;19.50;99.90;;;;;;5051894;28;20045;-74
2022/05/06 12:45:54;;;;;;;4.30;2.30;;;19.50;99.90;;;;;;5052022;28;20044;-74
2022/05/06 12:51:05;;;;;;;3.58;1.90;;;19.60;99.30;;;;;;5051910;28;20037;-74
2022/05/06 12:53:33;;;;;;;7.88;1.98;;;19.60;99.70;;;;;;5051798;28;20052;-74
2022/05/06 12:56:00;;;;;;;4.72;1.98;;;19.60;98.60;;;;;;5051899;28;20040;-74
2022/05/06 12:58:27;;;;;;;6.93;2.30;;;19.60;99.90;;;;;;5051925;28;20060;-74
2022/05/06 13:00:58;;;;;;;5.95;2.30;;;19.70;99.40;;;;;;5035519;28;20370;-74
2022/05/06 13:03:24;;;;;;;6.05;2.55;;;19.70;99.90;;;;;;5051777;28;20049;-74
2022/05/06 13:05:50;;;;;;;4.25;2.60;;;19.80;99.90;;;;;;5051963;28;20041;-74
2022/05/06 13:08:16;;;;;;;6.07;2.85;;;19.80;99.60;;;;;;5051996;28;20064;-74
2022/05/06 13:10:41;;;;;;;4.20;2.20;;;19.90;97.40;;;;;;5051648;28;20056;-74
2022/05/06 13:13:07;;;;;;;6.38;2.58;;;19.90;97.20;;;;;;5051595;28;20040;-74
2022/05/06 13:15:33;;;;;;;5.68;2.40;;;19.80;98.50;;;;;;5052197;28;20040;-74
2022/05/06 13:17:58;;;;;;;5.53;2.30;;;19.60;98.90;;;;;;5056050;28;20045;-74
2022/05/06 13:20:24;;;;;;;4.70;2.55;;;19.60;99.80;;;;;;5039111;28;20136;-73
2022/05/06 13:22:50;;;;;;;5.07;2.40;;;19.80;99.90;;;;;;5055610;28;20037;-74
2022/05/06 13:25:17;;;;;;;4.95;2.40;;;19.70;97.60;;;;;;5072269;28;20120;-74
2022/05/06 13:27:43;;;;;;;5.80;2.30;;;19.70;99.80;;;;;;5055644;28;20508;-74
2022/05/06 13:30:09;;;;;;;6.32;3.03;;;19.70;99.00;;;;;;5055532;28;20037;-74